Time;durP1;ratioP1;P1;durP2;ratioP2;P2;SDS_P1;SDS_P2;PMS_P1;PMS_P2;Temp;Humidity;BMP_temperature;BMP_pressure;BME280_temperature;BME280_humidity;BME280_pressure;Samples;Min_cycle;Max_cycle;Signal;HPM_P1;HPM_P2
2022/07/28 00:01:27;;;;;;;2.08;1.38;;;;;;;;;;5059861;28;20037;-70
2022/07/28 00:03:53;;;;;;;2.42;1.20;;;;;;;;;;5080516;28;20564;-70
2022/07/28 00:06:18;;;;;;;3.95;1.65;;;;;;;;;;5080102;28;20035;-71
2022/07/28 00:08:43;;;;;;;5.05;3.58;;;;;;;;;;5062517;28;20497;-70
2022/07/28 00:11:08;;;;;;;1.50;1.40;;;;;;;;;;5055193;28;20033;-70
2022/07/28 00:13:34;;;;;;;4.30;1.20;;;;;;;;;;5050884;28;20033;-70
2022/07/28 00:15:59;;;;;;;8.35;1.50;;;;;;;;;;5050917;28;20032;-70
2022/07/28 00:18:25;;;;;;;2.97;1.50;;;;;;;;;;5061142;28;20394;-70
2022/07/28 00:20:50;;;;;;;3.22;1.40;;;;;;;;;;5072911;28;20036;-71
2022/07/28 00:23:15;;;;;;;1.63;1.30;;;;;;;;;;5060890;28;20154;-70
2022/07/28 00:25:40;;;;;;;2.67;1.30;;;;;;;;;;5065845;28;20387;-70
2022/07/28 00:28:06;;;;;;;1.80;1.20;;;;;;;;;;5067850;28;20052;-70
2022/07/28 00:30:31;;;;;;;3.50;1.38;;;;;;;;;;5075477;28;20020;-70
2022/07/28 00:32:56;;;;;;;3.03;1.10;;;;;;;;;;5067674;28;20039;-70
2022/07/28 00:35:22;;;;;;;3.33;1.35;;;;;;;;;;5070401;28;20025;-70
2022/07/28 00:37:47;;;;;;;1.35;1.20;;;;;;;;;;5058922;28;20040;-70
2022/07/28 00:40:12;;;;;;;4.28;1.45;;;;;;;;;;5066502;28;20097;-70
2022/07/28 00:42:37;;;;;;;3.33;1.73;;;;;;;;;;5072209;28;20028;-70
2022/07/28 00:45:04;;;;;;;2.95;1.33;;;;;;;;;;5064886;28;20028;-69
2022/07/28 00:47:29;;;;;;;2.38;1.40;;;;;;;;;;5070226;28;20036;-70
2022/07/28 00:49:54;;;;;;;6.45;1.50;;;;;;;;;;5080261;28;20477;-70
2022/07/28 00:52:21;;;;;;;4.00;1.27;;;;;;;;;;5074030;28;20123;-70
2022/07/28 00:54:46;;;;;;;1.13;1.10;;;;;;;;;;5052141;28;20040;-71
2022/07/28 00:57:11;;;;;;;6.03;1.80;;;;;;;;;;5065697;28;20024;-71
2022/07/28 00:59:37;;;;;;;2.42;1.40;;;;;;;;;;5069664;28;20621;-70
2022/07/28 01:02:03;;;;;;;3.30;1.13;;;;;;;;;;5068304;28;20021;-70
2022/07/28 01:04:29;;;;;;;1.40;1.30;;;;;;;;;;5076853;28;20039;-69
2022/07/28 01:06:57;;;;;;;1.20;1.00;;;;;;;;;;5060006;28;20394;-70
2022/07/28 01:09:38;;;;;;;1.45;1.35;;;;;;;;;;5052564;28;20037;-71
2022/07/28 01:12:06;;;;;;;2.20;1.40;;;;;;;;;;5064292;28;20028;-71
2022/07/28 01:14:46;;;;;;;3.92;1.10;;;;;;;;;;5069857;28;20393;-70
2022/07/28 01:17:49;;;;;;;2.63;1.23;;;;;;;;;;5075757;28;20119;-70
2022/07/28 01:20:21;;;;;;;4.82;1.40;;;;;;;;;;5069180;28;20021;-70
2022/07/28 01:23:05;;;;;;;;;;;;;;;;;;5061308;28;20032;-70
2022/07/28 01:26:16;;;;;;;1.23;1.13;;;;;;;;;;5060503;28;19958;-70
2022/07/28 01:28:47;;;;;;;3.63;1.35;;;;;;;;;;5054667;28;20044;-70
2022/07/28 01:31:18;;;;;;;1.58;1.10;;;;;;;;;;5077370;28;20032;-71
2022/07/28 01:33:48;;;;;;;2.03;1.27;;;;;;;;;;5068470;28;20309;-70
2022/07/28 01:36:17;;;;;;;4.65;1.52;;;;;;;;;;5059965;28;20546;-70
2022/07/28 01:38:44;;;;;;;2.22;1.30;;;;;;;;;;5054136;28;20029;-70
2022/07/28 01:41:18;;;;;;;1.38;1.20;;;;;;;;;;5064585;28;20025;-70
2022/07/28 01:43:49;;;;;;;2.78;1.10;;;;;;;;;;5069461;28;20031;-70
2022/07/28 01:46:15;;;;;;;3.38;1.65;;;;;;;;;;5065274;28;20078;-70
2022/07/28 01:48:42;;;;;;;3.15;1.17;;;;;;;;;;5070342;28;20390;-70
2022/07/28 01:51:10;;;;;;;1.55;1.05;;;;;;;;;;5059269;28;20348;-71
2022/07/28 01:53:37;;;;;;;1.88;1.17;;;;;;;;;;5049657;28;20487;-70
2022/07/28 01:56:04;;;;;;;2.33;1.10;;;;;;;;;;5059225;28;20092;-70
2022/07/28 01:58:31;;;;;;;2.40;1.05;;;;;;;;;;5073405;28;20078;-72
2022/07/28 02:00:58;;;;;;;2.42;1.10;;;;;;;;;;5049005;28;20037;-70
2022/07/28 02:03:24;;;;;;;4.40;1.15;;;;;;;;;;5063967;28;20454;-71
2022/07/28 02:05:52;;;;;;;3.15;1.10;;;;;;;;;;5058892;28;20044;-71
2022/07/28 02:08:20;;;;;;;4.60;1.20;;;;;;;;;;5063173;28;20360;-71
2022/07/28 02:11:38;;;;;;;3.20;1.25;;;;;;;;;;5054897;28;20020;-70
2022/07/28 02:13:34;;;;;;;2.10;1.33;;;;;;;;;;5060037;28;20064;-69
2022/07/28 02:16:04;;;;;;;3.50;1.77;;;;;;;;;;5073713;28;20529;-70
2022/07/28 02:18:31;;;;;;;1.27;1.00;;;;;;;;;;5058987;28;20157;-70
2022/07/28 02:20:58;;;;;;;2.95;1.30;;;;;;;;;;5062603;28;20483;-70
2022/07/28 02:23:23;;;;;;;2.72;1.38;;;;;;;;;;5062630;28;20032;-71
2022/07/28 02:25:50;;;;;;;3.13;1.67;;;;;;;;;;5067908;28;20032;-70
2022/07/28 02:28:17;;;;;;;3.15;1.20;;;;;;;;;;5059787;28;20127;-71
2022/07/28 02:30:49;;;;;;;2.17;1.15;;;;;;;;;;5075768;28;20043;-70
2022/07/28 02:33:19;;;;;;;2.30;1.42;;;;;;;;;;5081391;28;20435;-70
2022/07/28 02:35:51;;;;;;;3.33;1.45;;;;;;;;;;5055655;28;20020;-69
2022/07/28 02:38:23;;;;;;;2.30;1.08;;;;;;;;;;5063523;28;20029;-69
2022/07/28 02:40:52;;;;;;;2.20;1.20;;;;;;;;;;5048218;28;20037;-69
2022/07/28 02:43:27;;;;;;;1.85;1.10;;;;;;;;;;5048124;28;20479;-69
2022/07/28 02:45:54;;;;;;;3.50;1.10;;;;;;;;;;5048131;28;20558;-69
2022/07/28 02:48:23;;;;;;;2.42;1.10;;;;;;;;;;5052103;28;20356;-69
2022/07/28 02:50:51;;;;;;;5.03;1.20;;;;;;;;;;5059987;28;20024;-70
2022/07/28 02:53:17;;;;;;;1.92;1.00;;;;;;;;;;5051822;28;20509;-69
2022/07/28 02:55:46;;;;;;;4.95;1.08;;;;;;;;;;5048451;28;20057;-70
2022/07/28 02:58:13;;;;;;;4.28;1.20;;;;;;;;;;5055454;28;20037;-69
2022/07/28 03:00:39;;;;;;;3.47;1.08;;;;;;;;;;5060813;28;20021;-71
2022/07/28 03:03:05;;;;;;;1.23;1.00;;;;;;;;;;5075531;28;20568;-70
2022/07/28 03:05:31;;;;;;;1.65;1.00;;;;;;;;;;5049588;28;20021;-71
2022/07/28 03:07:57;;;;;;;6.28;1.17;;;;;;;;;;5047829;28;20025;-70
2022/07/28 03:10:25;;;;;;;3.75;1.20;;;;;;;;;;5060194;28;20371;-70
2022/07/28 03:12:52;;;;;;;3.00;1.10;;;;;;;;;;5066858;28;20341;-71
2022/07/28 03:15:17;;;;;;;3.08;1.10;;;;;;;;;;5054431;28;20024;-70
2022/07/28 03:17:42;;;;;;;2.10;1.17;;;;;;;;;;5067971;28;20028;-69
2022/07/28 03:20:08;;;;;;;1.40;1.00;;;;;;;;;;5072436;28;20493;-70
2022/07/28 03:22:34;;;;;;;3.85;1.00;;;;;;;;;;5064272;28;20024;-69
2022/07/28 03:25:01;;;;;;;2.67;1.40;;;;;;;;;;5061992;28;20094;-69
2022/07/28 03:27:32;;;;;;;3.20;0.90;;;;;;;;;;5052753;28;20039;-69
2022/07/28 03:30:01;;;;;;;5.65;1.25;;;;;;;;;;5047640;28;20103;-70
2022/07/28 03:32:29;;;;;;;3.40;1.23;;;;;;;;;;5050819;28;20024;-69
2022/07/28 03:34:55;;;;;;;4.10;1.10;;;;;;;;;;5062003;28;20036;-70
2022/07/28 03:37:27;;;;;;;3.75;1.13;;;;;;;;;;5062699;28;20297;-69
2022/07/28 03:39:56;;;;;;;1.27;1.17;;;;;;;;;;5073184;28;20024;-69
2022/07/28 03:42:21;;;;;;;2.05;0.90;;;;;;;;;;5071486;28;20036;-70
2022/07/28 03:44:47;;;;;;;1.42;0.90;;;;;;;;;;5060047;28;20461;-70
2022/07/28 03:47:14;;;;;;;3.72;1.23;;;;;;;;;;5066878;28;20039;-71
2022/07/28 03:49:39;;;;;;;2.35;0.90;;;;;;;;;;5058606;28;20036;-70
2022/07/28 03:52:05;;;;;;;5.20;1.27;;;;;;;;;;5052637;28;20040;-70
2022/07/28 03:54:30;;;;;;;2.65;1.10;;;;;;;;;;5061172;28;20107;-72
2022/07/28 03:56:55;;;;;;;2.13;1.23;;;;;;;;;;5066750;28;20548;-70
2022/07/28 03:59:21;;;;;;;2.70;1.60;;;;;;;;;;5066362;28;20328;-69
2022/07/28 04:01:46;;;;;;;4.30;1.10;;;;;;;;;;5070031;28;20036;-71
2022/07/28 04:04:11;;;;;;;3.10;1.30;;;;;;;;;;5063141;28;20224;-69
2022/07/28 04:06:36;;;;;;;1.65;1.00;;;;;;;;;;5070126;28;20027;-71
2022/07/28 04:09:02;;;;;;;2.50;1.10;;;;;;;;;;5068954;28;20059;-71
2022/07/28 04:11:28;;;;;;;2.17;1.05;;;;;;;;;;5067418;28;20028;-69
2022/07/28 04:13:54;;;;;;;2.25;1.00;;;;;;;;;;5073781;28;20032;-71
2022/07/28 04:16:20;;;;;;;3.97;1.00;;;;;;;;;;5067528;28;20029;-69
2022/07/28 04:18:46;;;;;;;2.92;1.27;;;;;;;;;;5062768;28;20031;-70
2022/07/28 04:21:11;;;;;;;2.90;1.20;;;;;;;;;;5069840;28;20399;-69
2022/07/28 04:23:36;;;;;;;3.78;1.20;;;;;;;;;;5070948;28;20068;-70
2022/07/28 04:26:02;;;;;;;3.42;1.10;;;;;;;;;;5068916;28;20381;-70
2022/07/28 04:28:27;;;;;;;3.95;1.02;;;;;;;;;;5062183;28;20115;-69
2022/07/28 04:30:52;;;;;;;5.55;1.13;;;;;;;;;;5064494;28;20045;-69
2022/07/28 04:33:18;;;;;;;3.17;1.17;;;;;;;;;;5067143;28;20505;-71
2022/07/28 04:35:45;;;;;;;4.18;1.20;;;;;;;;;;5065935;28;20078;-70
2022/07/28 04:38:13;;;;;;;2.97;1.23;;;;;;;;;;5050343;28;20029;-70
2022/07/28 04:40:39;;;;;;;5.22;1.30;;;;;;;;;;5050263;28;20032;-71
2022/07/28 04:43:04;;;;;;;3.33;1.08;;;;;;;;;;5067608;28;20035;-71
2022/07/28 04:45:30;;;;;;;4.82;1.30;;;;;;;;;;5062007;28;20036;-70
2022/07/28 04:47:55;;;;;;;6.38;1.00;;;;;;;;;;5070196;28;20134;-70
2022/07/28 04:50:20;;;;;;;2.28;1.00;;;;;;;;;;5060351;28;20043;-71
2022/07/28 04:52:48;;;;;;;8.10;1.35;;;;;;;;;;5050132;28;20094;-70
2022/07/28 04:55:13;;;;;;;3.90;1.38;;;;;;;;;;5049961;28;20032;-70
2022/07/28 04:57:38;;;;;;;3.15;1.30;;;;;;;;;;5049996;28;20033;-70
2022/07/28 05:00:13;;;;;;;11.10;1.45;;;;;;;;;;5049769;28;20104;-71
2022/07/28 05:02:40;;;;;;;4.95;1.00;;;;;;;;;;5053286;28;20020;-70
2022/07/28 05:05:06;;;;;;;6.40;1.25;;;;;;;;;;5053453;28;20028;-72
2022/07/28 05:07:31;;;;;;;5.85;1.23;;;;;;;;;;5068272;28;20040;-71
2022/07/28 05:09:56;;;;;;;4.07;1.30;;;;;;;;;;5069133;28;20567;-71
2022/07/28 05:12:22;;;;;;;5.70;1.30;;;;;;;;;;5067412;28;20028;-71
2022/07/28 05:14:47;;;;;;;2.65;1.30;;;;;;;;;;5069464;28;20418;-69
2022/07/28 05:17:13;;;;;;;4.32;1.20;;;;;;;;;;5067815;28;20028;-72
2022/07/28 05:19:38;;;;;;;3.65;1.13;;;;;;;;;;5060351;28;20370;-70
2022/07/28 05:22:03;;;;;;;2.55;0.88;;;;;;;;;;5057961;28;20025;-70
2022/07/28 05:24:28;;;;;;;9.88;1.30;;;;;;;;;;5050113;28;20075;-69
2022/07/28 05:26:54;;;;;;;6.40;1.20;;;;;;;;;;5066051;28;20027;-71
2022/07/28 05:29:19;;;;;;;5.13;1.20;;;;;;;;;;5068961;28;20036;-71
2022/07/28 05:31:44;;;;;;;4.80;1.00;;;;;;;;;;5060559;28;20024;-70
2022/07/28 05:34:09;;;;;;;4.47;1.40;;;;;;;;;;5060879;28;20033;-72
2022/07/28 05:36:35;;;;;;;3.17;1.10;;;;;;;;;;5068945;28;20047;-70
2022/07/28 05:39:00;;;;;;;5.53;1.00;;;;;;;;;;5068542;28;20028;-72
2022/07/28 05:41:26;;;;;;;9.15;1.08;;;;;;;;;;5071853;28;20071;-71
2022/07/28 05:43:51;;;;;;;7.18;1.48;;;;;;;;;;5071993;28;20032;-69
2022/07/28 05:46:16;;;;;;;3.58;1.20;;;;;;;;;;5065480;28;20413;-70
2022/07/28 05:48:41;;;;;;;5.18;1.08;;;;;;;;;;5068616;28;20025;-69
2022/07/28 05:51:07;;;;;;;8.95;1.33;;;;;;;;;;5067284;28;20025;-71
2022/07/28 05:53:32;;;;;;;1.92;1.10;;;;;;;;;;5060482;28;20639;-73
2022/07/28 05:55:57;;;;;;;5.28;1.10;;;;;;;;;;5067884;28;20104;-70
2022/07/28 05:58:23;;;;;;;5.18;1.40;;;;;;;;;;5060773;28;20516;-71
2022/07/28 06:00:49;;;;;;;10.13;1.65;;;;;;;;;;5068997;28;20469;-72
2022/07/28 06:03:15;;;;;;;3.30;1.20;;;;;;;;;;5070406;28;20024;-70
2022/07/28 06:05:40;;;;;;;2.58;1.00;;;;;;;;;;5063477;28;20501;-72
2022/07/28 06:08:05;;;;;;;3.70;1.17;;;;;;;;;;5063505;28;20055;-69
2022/07/28 06:13:16;;;;;;;9.07;1.45;;;;;;;;;;5064308;28;20074;-69
2022/07/28 06:15:42;;;;;;;4.38;1.20;;;;;;;;;;5064496;28;20032;-69
2022/07/28 06:18:07;;;;;;;3.70;1.20;;;;;;;;;;5052561;28;20035;-71
2022/07/28 06:20:33;;;;;;;6.53;1.33;;;;;;;;;;5065726;28;20024;-69
2022/07/28 06:22:58;;;;;;;5.15;1.30;;;;;;;;;;5067140;28;20032;-72
2022/07/28 06:25:27;;;;;;;4.72;1.50;;;;;;;;;;5070064;28;20071;-72
2022/07/28 06:27:55;;;;;;;9.20;1.40;;;;;;;;;;5059614;28;20036;-70
2022/07/28 06:30:22;;;;;;;7.43;1.10;;;;;;;;;;5067545;28;20059;-72
2022/07/28 06:32:48;;;;;;;4.35;1.40;;;;;;;;;;5065995;28;20051;-73
2022/07/28 06:35:15;;;;;;;9.82;1.35;;;;;;;;;;5058073;28;20028;-72
2022/07/28 06:37:41;;;;;;;8.30;1.65;;;;;;;;;;5053954;28;20040;-70
2022/07/28 06:40:07;;;;;;;8.07;1.20;;;;;;;;;;5069603;28;20024;-71
2022/07/28 06:42:33;;;;;;;11.85;1.70;;;;;;;;;;5058689;28;20028;-74
2022/07/28 06:44:58;;;;;;;5.85;1.10;;;;;;;;;;5067446;28;20561;-72
2022/07/28 06:47:23;;;;;;;9.15;1.30;;;;;;;;;;5067240;28;20024;-70
2022/07/28 06:49:48;;;;;;;8.65;1.20;;;;;;;;;;5067677;28;20586;-73
2022/07/28 06:52:16;;;;;;;9.98;1.20;;;;;;;;;;5065847;28;20035;-71
2022/07/28 06:54:41;;;;;;;9.20;1.30;;;;;;;;;;5059586;28;20063;-74
2022/07/28 06:57:08;;;;;;;6.47;1.42;;;;;;;;;;5060525;28;20530;-73
2022/07/28 06:59:33;;;;;;;4.93;1.10;;;;;;;;;;5067934;28;20021;-72
2022/07/28 07:02:00;;;;;;;14.15;1.42;;;;;;;;;;5062821;28;20063;-72
2022/07/28 07:04:29;;;;;;;4.57;1.38;;;;;;;;;;5064798;28;20028;-73
2022/07/28 07:06:54;;;;;;;2.80;1.00;;;;;;;;;;5067018;28;20064;-73
2022/07/28 07:09:19;;;;;;;7.55;1.42;;;;;;;;;;5059437;28;20052;-70
2022/07/28 07:11:45;;;;;;;3.40;1.20;;;;;;;;;;5067505;28;20435;-72
2022/07/28 07:14:10;;;;;;;6.00;1.23;;;;;;;;;;5067117;28;20484;-73
2022/07/28 07:16:35;;;;;;;2.22;1.15;;;;;;;;;;5069328;28;20041;-72
2022/07/28 07:19:01;;;;;;;2.42;0.88;;;;;;;;;;5055429;28;20024;-73
2022/07/28 07:21:26;;;;;;;6.18;1.17;;;;;;;;;;5059303;28;20024;-71
2022/07/28 07:23:51;;;;;;;3.08;1.20;;;;;;;;;;5056328;28;20494;-70
2022/07/28 07:26:17;;;;;;;3.38;1.02;;;;;;;;;;5046929;28;20175;-71
2022/07/28 07:28:42;;;;;;;8.43;1.20;;;;;;;;;;5047792;28;20352;-73
2022/07/28 07:31:07;;;;;;;7.75;1.50;;;;;;;;;;5046899;28;20415;-74
2022/07/28 07:33:32;;;;;;;2.97;1.00;;;;;;;;;;5048261;28;20033;-71
2022/07/28 07:35:58;;;;;;;3.72;1.05;;;;;;;;;;5050903;28;20130;-76
2022/07/28 07:38:23;;;;;;;6.88;1.35;;;;;;;;;;5080276;28;20035;-72
2022/07/28 07:40:50;;;;;;;4.88;1.35;;;;;;;;;;5063296;28;20028;-72
2022/07/28 07:43:16;;;;;;;4.25;1.10;;;;;;;;;;5071725;28;20017;-71
2022/07/28 07:45:41;;;;;;;4.00;1.10;;;;;;;;;;5070707;28;20050;-75
2022/07/28 07:48:07;;;;;;;4.88;1.27;;;;;;;;;;5064717;28;20499;-72
2022/07/28 07:50:33;;;;;;;6.68;1.10;;;;;;;;;;5069043;28;20557;-72
2022/07/28 07:52:59;;;;;;;2.08;1.35;;;;;;;;;;5068118;28;20608;-72
2022/07/28 07:55:25;;;;;;;2.28;1.08;;;;;;;;;;5055230;28;20028;-74
2022/07/28 07:57:50;;;;;;;2.88;1.08;;;;;;;;;;5068289;28;20025;-71
2022/07/28 08:00:16;;;;;;;3.53;1.00;;;;;;;;;;5066700;28;20123;-70
2022/07/28 08:02:41;;;;;;;3.53;1.10;;;;;;;;;;5070353;28;20496;-73
2022/07/28 08:05:08;;;;;;;3.70;0.88;;;;;;;;;;5071311;28;20028;-72
2022/07/28 08:07:33;;;;;;;2.20;1.30;;;;;;;;;;5069365;28;20063;-71
2022/07/28 08:09:59;;;;;;;3.25;1.20;;;;;;;;;;5066931;28;20064;-72
2022/07/28 08:12:24;;;;;;;3.93;0.93;;;;;;;;;;5057515;28;20051;-71
2022/07/28 08:14:49;;;;;;;4.20;0.97;;;;;;;;;;5066086;28;20273;-71
2022/07/28 08:17:15;;;;;;;3.38;1.30;;;;;;;;;;5061839;28;20625;-72
2022/07/28 08:19:40;;;;;;;2.13;0.88;;;;;;;;;;5070654;28;20066;-73
2022/07/28 08:22:05;;;;;;;5.40;1.30;;;;;;;;;;5065394;28;20032;-73
2022/07/28 08:24:31;;;;;;;2.38;1.05;;;;;;;;;;5066989;28;20020;-71
2022/07/28 08:26:56;;;;;;;4.22;1.50;;;;;;;;;;5065535;28;20029;-72
2022/07/28 08:29:21;;;;;;;3.03;1.27;;;;;;;;;;5054710;28;20028;-72
2022/07/28 08:31:47;;;;;;;1.70;1.17;;;;;;;;;;5055696;28;20334;-73
2022/07/28 08:34:12;;;;;;;3.75;1.05;;;;;;;;;;5065720;28;20033;-72
2022/07/28 08:36:37;;;;;;;4.57;1.30;;;;;;;;;;5067279;28;20177;-73
2022/07/28 08:39:04;;;;;;;4.70;1.10;;;;;;;;;;5065052;28;20375;-72
2022/07/28 08:41:37;;;;;;;3.75;1.00;;;;;;;;;;5063326;28;20251;-70
2022/07/28 08:44:04;;;;;;;5.10;1.10;;;;;;;;;;5064976;28;20029;-74
2022/07/28 08:46:34;;;;;;;2.45;1.00;;;;;;;;;;5057182;28;20033;-71
2022/07/28 08:49:01;;;;;;;2.15;0.88;;;;;;;;;;5065797;28;20025;-71
2022/07/28 08:51:26;;;;;;;3.33;1.00;;;;;;;;;;5065556;28;20114;-70
2022/07/28 08:53:52;;;;;;;4.38;1.25;;;;;;;;;;5066278;28;20450;-70
2022/07/28 08:56:19;;;;;;;4.03;0.93;;;;;;;;;;5066746;28;20065;-70
2022/07/28 08:58:44;;;;;;;1.40;0.90;;;;;;;;;;5064143;28;20039;-69
2022/07/28 09:01:10;;;;;;;2.67;0.90;;;;;;;;;;5064913;28;20036;-69
2022/07/28 09:03:37;;;;;;;3.08;0.98;;;;;;;;;;5056289;28;20031;-69
2022/07/28 09:06:03;;;;;;;5.35;1.08;;;;;;;;;;5063622;28;20343;-68
2022/07/28 09:08:29;;;;;;;1.65;0.80;;;;;;;;;;5063444;28;20028;-69
2022/07/28 09:10:54;;;;;;;5.00;1.00;;;;;;;;;;5064634;28;20115;-69
2022/07/28 09:13:20;;;;;;;4.77;0.90;;;;;;;;;;5066006;28;20035;-67
2022/07/28 09:15:46;;;;;;;4.00;1.13;;;;;;;;;;5065952;28;20727;-69
2022/07/28 09:18:13;;;;;;;4.30;1.00;;;;;;;;;;5057279;28;20029;-68
2022/07/28 09:20:40;;;;;;;3.92;1.00;;;;;;;;;;5062140;28;20438;-68
2022/07/28 09:23:06;;;;;;;4.70;1.30;;;;;;;;;;5063951;28;20507;-67
2022/07/28 09:25:32;;;;;;;3.83;1.08;;;;;;;;;;5058103;28;20025;-68
2022/07/28 09:28:24;;;;;;;4.45;1.00;;;;;;;;;;5065081;28;20542;-68
2022/07/28 09:30:50;;;;;;;4.20;1.00;;;;;;;;;;5061504;28;20075;-68
2022/07/28 09:33:22;;;;;;;3.80;0.88;;;;;;;;;;5069387;28;20052;-72
2022/07/28 09:35:55;;;;;;;2.70;1.00;;;;;;;;;;5061839;28;20078;-72
2022/07/28 09:38:22;;;;;;;2.38;0.80;;;;;;;;;;5044888;28;20029;-70
2022/07/28 09:41:05;;;;;;;3.47;1.13;;;;;;;;;;5059331;28;20056;-71
2022/07/28 09:43:38;;;;;;;3.83;1.17;;;;;;;;;;5047974;28;20029;-77
2022/07/28 09:46:20;;;;;;;4.05;0.98;;;;;;;;;;5058610;28;20107;-69
2022/07/28 09:48:48;;;;;;;3.83;1.30;;;;;;;;;;5056639;28;20028;-69
2022/07/28 09:51:15;;;;;;;6.50;1.40;;;;;;;;;;5055380;28;20670;-70
2022/07/28 09:53:41;;;;;;;4.25;1.10;;;;;;;;;;5046702;28;20138;-70
2022/07/28 09:56:07;;;;;;;1.88;1.08;;;;;;;;;;5045944;28;20135;-71
2022/07/28 09:58:32;;;;;;;2.15;0.95;;;;;;;;;;5054814;28;20107;-68
2022/07/28 10:01:12;;;;;;;4.85;1.30;;;;;;;;;;5054865;28;20113;-67
2022/07/28 10:03:40;;;;;;;6.05;1.38;;;;;;;;;;5059610;28;20025;-68
2022/07/28 10:06:10;;;;;;;3.63;1.02;;;;;;;;;;5053844;28;20025;-70
2022/07/28 10:08:47;;;;;;;6.80;1.50;;;;;;;;;;5054634;28;20048;-68
2022/07/28 10:11:16;;;;;;;2.97;1.10;;;;;;;;;;5061157;28;20102;-67
2022/07/28 10:13:51;;;;;;;2.28;1.00;;;;;;;;;;5068170;28;20113;-67
2022/07/28 10:16:17;;;;;;;1.20;0.98;;;;;;;;;;5055540;28;20086;-68
2022/07/28 10:18:43;;;;;;;3.88;1.10;;;;;;;;;;5061912;28;20767;-67
2022/07/28 10:21:12;;;;;;;4.22;1.08;;;;;;;;;;5062298;28;20685;-68
2022/07/28 10:23:40;;;;;;;1.52;0.90;;;;;;;;;;5063621;28;20017;-68
2022/07/28 10:26:09;;;;;;;2.25;1.10;;;;;;;;;;5064919;28;20691;-68
2022/07/28 10:44:37;;;;;;;;;;;;;;;;;;5023516;28;20047;-72
2022/07/28 10:47:07;;;;;;;2.25;1.17;;;;;;;;;;5020844;28;19913;-74
2022/07/28 10:49:34;;;;;;;3.53;1.42;;;;;;;;;;5024221;28;20033;-74
2022/07/28 10:52:00;;;;;;;3.50;1.10;;;;;;;;;;5025151;28;20044;-72
2022/07/28 10:54:28;;;;;;;2.60;1.45;;;;;;;;;;5024369;28;20087;-72
2022/07/28 10:57:00;;;;;;;2.97;1.20;;;;;;;;;;5046183;22;20053;-71
2022/07/28 10:59:51;;;;;;;2.53;1.30;;;;;;;;;;5025117;28;20190;-71
2022/07/28 11:02:46;;;;;;;2.20;1.30;;;;;;;;;;5024044;28;20037;-70
2022/07/28 11:05:24;;;;;;;3.08;1.38;;;;;;;;;;5019304;28;20606;-70
2022/07/28 11:07:49;;;;;;;4.07;1.33;;;;;;;;;;5025174;28;20087;-69
2022/07/28 11:10:16;;;;;;;1.48;0.93;;;;;;;;;;5028039;28;20029;-72
2022/07/28 11:12:52;;;;;;;1.85;0.90;;;;;;;;;;5028706;28;20064;-71
2022/07/28 11:15:44;;;;;;;4.10;1.42;;;;;;;;;;5028280;28;20022;-70
2022/07/28 11:18:09;;;;;;;4.93;1.58;;;;;;;;;;5030019;28;20049;-69
2022/07/28 11:20:56;;;;;;;4.55;1.60;;;;;;;;;;5040235;28;20094;-70
2022/07/28 11:23:36;;;;;;;3.72;1.52;;;;;;;;;;5048687;28;20021;-71
2022/07/28 11:26:22;;;;;;;3.55;1.20;;;;;;;;;;5042036;28;20466;-69
2022/07/28 11:29:02;;;;;;;3.80;1.20;;;;;;;;;;5030712;28;20032;-70
2022/07/28 11:31:42;;;;;;;3.95;1.42;;;;;;;;;;5036585;28;20036;-70
2022/07/28 11:34:12;;;;;;;2.83;1.38;;;;;;;;;;5039983;28;20029;-71
2022/07/28 11:37:02;;;;;;;3.63;1.25;;;;;;;;;;5022375;28;20041;-70
2022/07/28 11:39:35;;;;;;;3.75;1.20;;;;;;;;;;5029349;28;20029;-71
2022/07/28 11:42:26;;;;;;;2.25;1.00;;;;;;;;;;5048063;28;20029;-70
2022/07/28 11:44:52;;;;;;;2.80;1.20;;;;;;;;;;5036258;28;20498;-72
2022/07/28 11:47:19;;;;;;;2.95;1.20;;;;;;;;;;5035513;28;20970;-71
2022/07/28 11:50:11;;;;;;;2.13;1.27;;;;;;;;;;5041308;28;20493;-76
2022/07/28 11:52:37;;;;;;;3.88;1.55;;;;;;;;;;5048241;28;20108;-70
2022/07/28 11:55:04;;;;;;;7.32;1.38;;;;;;;;;;5047650;28;20167;-72
2022/07/28 11:57:37;;;;;;;2.35;1.58;;;;;;;;;;5038466;28;20045;-74
2022/07/28 12:00:04;;;;;;;3.60;1.55;;;;;;;;;;5044409;28;20029;-70
2022/07/28 12:02:31;;;;;;;2.97;1.63;;;;;;;;;;5047454;28;20055;-71
2022/07/28 12:05:09;;;;;;;1.83;1.20;;;;;;;;;;5029518;28;20082;-71
2022/07/28 12:07:46;;;;;;;2.17;1.42;;;;;;;;;;5037285;28;20045;-69
2022/07/28 12:10:26;;;;;;;2.03;1.58;;;;;;;;;;5038259;28;20033;-71
2022/07/28 12:12:55;;;;;;;2.35;1.27;;;;;;;;;;5027147;28;20025;-71
2022/07/28 12:15:21;;;;;;;3.08;1.60;;;;;;;;;;5026878;28;20051;-70
2022/07/28 12:17:47;;;;;;;2.55;1.23;;;;;;;;;;5034413;28;20032;-70
2022/07/28 12:20:15;;;;;;;2.65;1.20;;;;;;;;;;5044971;28;20025;-71
2022/07/28 12:22:53;;;;;;;4.53;1.80;;;;;;;;;;5047127;28;20035;-70
2022/07/28 12:25:18;;;;;;;4.97;1.50;;;;;;;;;;5049917;28;20047;-73
2022/07/28 12:27:44;;;;;;;3.97;1.40;;;;;;;;;;5035775;28;20033;-73
2022/07/28 12:30:11;;;;;;;2.03;1.35;;;;;;;;;;5046966;28;20051;-75
2022/07/28 12:32:37;;;;;;;4.13;1.73;;;;;;;;;;5031904;28;20367;-75
2022/07/28 12:35:03;;;;;;;3.78;1.52;;;;;;;;;;5048099;28;20032;-70
2022/07/28 12:37:28;;;;;;;1.85;1.50;;;;;;;;;;5039729;28;20032;-73
2022/07/28 12:39:54;;;;;;;7.10;1.60;;;;;;;;;;5043048;28;20028;-73
2022/07/28 12:42:20;;;;;;;3.53;1.60;;;;;;;;;;5048913;28;20021;-74
2022/07/28 12:44:47;;;;;;;4.82;1.40;;;;;;;;;;5049119;28;20071;-72
2022/07/28 12:47:16;;;;;;;2.55;1.52;;;;;;;;;;5042519;28;20031;-71
2022/07/28 12:49:42;;;;;;;2.53;1.45;;;;;;;;;;5041893;28;20047;-73
2022/07/28 12:52:19;;;;;;;5.32;1.40;;;;;;;;;;5048888;28;20093;-73
2022/07/28 12:54:45;;;;;;;10.10;1.63;;;;;;;;;;5048562;28;20037;-74
2022/07/28 12:57:10;;;;;;;2.42;1.45;;;;;;;;;;5042920;28;20482;-78
2022/07/28 12:59:37;;;;;;;3.15;1.70;;;;;;;;;;5041447;28;20079;-72
2022/07/28 13:02:03;;;;;;;2.83;1.60;;;;;;;;;;5048199;28;20033;-73
2022/07/28 13:04:47;;;;;;;4.05;1.50;;;;;;;;;;5049245;28;20024;-74
2022/07/28 13:07:20;;;;;;;2.15;1.60;;;;;;;;;;5041051;28;20056;-73
2022/07/28 13:09:48;;;;;;;2.42;1.42;;;;;;;;;;5043092;28;20024;-75
2022/07/28 13:12:16;;;;;;;6.43;1.73;;;;;;;;;;5048371;28;20025;-72
2022/07/28 13:14:43;;;;;;;2.67;1.60;;;;;;;;;;5048578;28;20029;-73
2022/07/28 13:17:09;;;;;;;7.30;2.08;;;;;;;;;;5040894;28;20049;-70
2022/07/28 13:19:35;;;;;;;3.03;1.58;;;;;;;;;;5038460;28;20482;-70
2022/07/28 13:22:00;;;;;;;2.78;1.40;;;;;;;;;;5045891;28;20043;-70
2022/07/28 13:24:27;;;;;;;1.85;1.60;;;;;;;;;;5046701;28;20074;-70
2022/07/28 13:26:52;;;;;;;1.75;1.20;;;;;;;;;;5040412;28;20028;-71
2022/07/28 13:29:18;;;;;;;2.47;1.35;;;;;;;;;;5038316;28;20079;-71
2022/07/28 13:31:44;;;;;;;1.45;1.35;;;;;;;;;;5043609;28;20025;-72
2022/07/28 13:34:09;;;;;;;1.55;1.40;;;;;;;;;;5036041;28;20360;-72
2022/07/28 13:36:36;;;;;;;4.18;1.50;;;;;;;;;;5042044;28;20029;-70
2022/07/28 13:39:03;;;;;;;2.47;2.03;;;;;;;;;;5032259;28;20075;-70
2022/07/28 13:41:29;;;;;;;2.63;1.50;;;;;;;;;;5040155;28;20036;-71
2022/07/28 13:43:57;;;;;;;2.75;1.67;;;;;;;;;;5048991;28;20020;-71
2022/07/28 13:46:23;;;;;;;2.97;1.60;;;;;;;;;;5024299;28;20449;-70
2022/07/28 13:48:49;;;;;;;3.88;1.70;;;;;;;;;;5036783;28;20102;-70
2022/07/28 13:51:14;;;;;;;2.00;1.50;;;;;;;;;;5046186;28;20036;-72
2022/07/28 13:53:40;;;;;;;2.80;1.50;;;;;;;;;;5048709;28;20029;-71
2022/07/28 13:56:07;;;;;;;3.63;1.38;;;;;;;;;;5043477;28;20422;-72
2022/07/28 13:58:33;;;;;;;2.80;1.50;;;;;;;;;;5030893;28;20119;-72
2022/07/28 14:00:59;;;;;;;3.45;1.40;;;;;;;;;;5040055;28;20529;-70
2022/07/28 14:03:25;;;;;;;3.90;1.70;;;;;;;;;;5048620;28;20020;-70
2022/07/28 14:05:50;;;;;;;2.67;1.48;;;;;;;;;;5044941;28;20040;-71
2022/07/28 14:08:18;;;;;;;2.92;1.95;;;;;;;;;;5038400;28;20037;-70
2022/07/28 14:10:48;;;;;;;3.00;1.60;;;;;;;;;;5048470;28;20028;-72
2022/07/28 14:13:13;;;;;;;2.97;1.50;;;;;;;;;;5048512;28;20056;-73
2022/07/28 14:15:39;;;;;;;3.33;1.48;;;;;;;;;;5048671;28;20075;-71
2022/07/28 14:18:05;;;;;;;2.72;1.40;;;;;;;;;;5036032;28;20299;-70
2022/07/28 14:20:31;;;;;;;3.67;1.50;;;;;;;;;;5047995;28;20036;-70
2022/07/28 14:22:57;;;;;;;3.75;1.60;;;;;;;;;;5048513;28;20029;-70
2022/07/28 14:25:23;;;;;;;2.75;1.35;;;;;;;;;;5047945;28;20081;-70
2022/07/28 14:27:50;;;;;;;3.33;1.45;;;;;;;;;;5038322;28;20105;-71
2022/07/28 14:30:15;;;;;;;1.60;1.50;;;;;;;;;;5046046;28;20033;-69
2022/07/28 14:32:40;;;;;;;4.05;1.30;;;;;;;;;;5048080;28;20032;-70
2022/07/28 14:35:06;;;;;;;2.67;1.60;;;;;;;;;;5048151;28;20054;-70
2022/07/28 14:37:31;;;;;;;3.05;1.70;;;;;;;;;;5040858;28;20266;-70
2022/07/28 14:39:57;;;;;;;2.28;1.40;;;;;;;;;;5043315;28;20033;-73
2022/07/28 14:42:22;;;;;;;3.40;2.05;;;;;;;;;;5047900;28;20028;-70
2022/07/28 14:44:48;;;;;;;3.90;1.77;;;;;;;;;;5047681;28;20020;-71
2022/07/28 14:47:14;;;;;;;3.80;1.70;;;;;;;;;;5043535;28;20036;-70
2022/07/28 14:49:39;;;;;;;3.22;1.77;;;;;;;;;;5040797;28;20546;-73
2022/07/28 14:52:05;;;;;;;2.03;1.80;;;;;;;;;;5048235;28;20064;-72
2022/07/28 14:54:32;;;;;;;1.98;1.58;;;;;;;;;;5047708;28;20710;-72
2022/07/28 14:56:57;;;;;;;4.03;1.70;;;;;;;;;;5044043;28;20032;-71
2022/07/28 14:59:22;;;;;;;3.73;1.70;;;;;;;;;;5039816;28;20025;-71
2022/07/28 15:01:48;;;;;;;6.15;1.65;;;;;;;;;;5047665;28;20268;-72
2022/07/28 15:04:14;;;;;;;3.70;1.88;;;;;;;;;;5048408;28;20029;-70
2022/07/28 15:06:39;;;;;;;3.13;1.60;;;;;;;;;;5045215;28;20036;-71